Time;durP1;ratioP1;P1;durP2;ratioP2;P2;SDS_P1;SDS_P2;PMS_P1;PMS_P2;Temp;Humidity;BMP_temperature;BMP_pressure;BME280_temperature;BME280_humidity;BME280_pressure;Samples;Min_cycle;Max_cycle;Signal;HPM_P1;HPM_P2
2021/09/01 00:02:12;;;;;;;25.70;12.80;;;;;;;20.36;100.00;101132.13;5032302;28;20606;-76
2021/09/01 00:04:38;;;;;;;28.37;12.70;;;;;;;20.31;100.00;101129.06;5029741;28;20178;-76
2021/09/01 00:07:04;;;;;;;18.97;11.63;;;;;;;20.34;100.00;101141.28;5030779;28;20663;-75
2021/09/01 00:09:29;;;;;;;21.73;11.07;;;;;;;20.28;100.00;101132.06;5031319;28;20630;-76
2021/09/01 00:11:57;;;;;;;35.30;11.33;;;;;;;20.29;100.00;101127.56;5030552;28;20424;-76
2021/09/01 00:14:22;;;;;;;27.90;12.17;;;;;;;20.28;100.00;101133.91;5031084;28;20587;-76
2021/09/01 00:16:49;;;;;;;16.60;11.70;;;;;;;20.21;100.00;101136.34;5031719;28;21068;-76
2021/09/01 00:19:14;;;;;;;25.23;13.47;;;;;;;20.13;100.00;101131.78;5031503;28;20185;-76
2021/09/01 00:21:40;;;;;;;22.17;13.67;;;;;;;20.09;100.00;101127.75;5030519;28;20661;-76
2021/09/01 00:24:06;;;;;;;30.90;16.43;;;;;;;20.01;100.00;101122.34;5031027;28;20190;-74
2021/09/01 00:26:32;;;;;;;27.73;17.70;;;;;;;19.94;100.00;101119.44;5030859;28;20174;-76
2021/09/01 00:28:58;;;;;;;24.67;13.63;;;;;;;19.95;100.00;101118.50;5029940;28;20452;-75
2021/09/01 00:31:25;;;;;;;30.10;12.10;;;;;;;20.02;100.00;101126.69;5030473;28;20444;-76
2021/09/01 00:33:51;;;;;;;21.47;12.20;;;;;;;20.10;100.00;101109.91;5029869;28;20204;-76
2021/09/01 00:36:18;;;;;;;18.53;10.90;;;;;;;20.14;100.00;101120.13;5031170;28;20543;-75
2021/09/01 00:38:45;;;;;;;20.90;10.40;;;;;;;20.12;100.00;101119.44;5030865;28;20415;-74
2021/09/01 00:41:30;;;;;;;16.00;10.80;;;;;;;20.14;100.00;101119.28;5031028;28;20420;-75
2021/09/01 00:43:58;;;;;;;18.40;10.10;;;;;;;20.19;100.00;101120.50;5030790;28;20447;-75
2021/09/01 00:46:23;;;;;;;16.90;10.73;;;;;;;20.17;100.00;101125.13;5030204;28;20763;-74
2021/09/01 00:48:53;;;;;;;19.47;10.17;;;;;;;20.18;100.00;101124.16;5030598;28;20951;-76
2021/09/01 00:51:20;;;;;;;30.40;11.20;;;;;;;20.17;100.00;101121.63;5029716;28;20205;-76
2021/09/01 00:53:47;;;;;;;23.80;11.80;;;;;;;20.20;100.00;101126.69;5030753;28;20432;-76
2021/09/01 00:56:31;;;;;;;19.03;12.20;;;;;;;20.19;100.00;101123.16;5030644;28;20452;-76
2021/09/01 00:58:57;;;;;;;17.73;10.70;;;;;;;20.18;100.00;101123.34;5031279;28;20412;-76
2021/09/01 01:01:23;;;;;;;20.40;11.17;;;;;;;20.18;100.00;101115.31;5030271;28;20491;-76
2021/09/01 01:03:53;;;;;;;21.30;9.63;;;;;;;20.18;100.00;101118.00;5030185;28;20940;-76
2021/09/01 01:06:23;;;;;;;20.63;12.43;;;;;;;20.15;100.00;101116.47;5030353;28;20178;-75
2021/09/01 01:08:50;;;;;;;29.67;14.03;;;;;;;20.14;100.00;101111.28;5030477;28;20498;-75
2021/09/01 01:11:16;;;;;;;31.43;13.30;;;;;;;20.10;100.00;101112.56;5030092;28;20435;-75
2021/09/01 01:13:45;;;;;;;24.43;13.73;;;;;;;20.05;100.00;101110.38;5031028;28;20451;-76
2021/09/01 01:16:17;;;;;;;27.43;14.07;;;;;;;20.08;100.00;101115.41;5030964;28;20189;-75
2021/09/01 01:18:46;;;;;;;32.47;17.67;;;;;;;20.04;100.00;101115.88;5030896;28;20796;-76
2021/09/01 01:21:16;;;;;;;30.27;16.60;;;;;;;19.99;100.00;101108.31;5012967;28;20459;-75
2021/09/01 01:23:42;;;;;;;30.40;18.20;;;;;;;19.94;100.00;101113.28;5029525;28;20957;-75
2021/09/01 01:26:08;;;;;;;30.20;16.83;;;;;;;19.90;100.00;101102.09;5029114;28;20496;-73
2021/09/01 01:29:00;;;;;;;24.40;16.40;;;;;;;19.90;100.00;101109.25;5056479;28;21158;-75
2021/09/01 01:31:26;;;;;;;28.90;14.53;;;;;;;19.87;100.00;101107.72;5064374;28;20423;-75
2021/09/01 01:33:53;;;;;;;20.40;13.37;;;;;;;19.87;100.00;101106.88;5058688;28;20417;-75
2021/09/01 01:36:18;;;;;;;17.03;11.83;;;;;;;19.91;100.00;101113.59;5048121;28;20180;-75
2021/09/01 01:38:44;;;;;;;29.13;12.07;;;;;;;19.94;100.00;101107.94;5049435;28;20419;-74
2021/09/01 01:41:10;;;;;;;16.77;10.83;;;;;;;19.98;100.00;101111.16;5059697;28;20180;-73
2021/09/01 01:43:38;;;;;;;21.50;12.23;;;;;;;20.06;100.00;101105.88;5048478;28;20411;-75
2021/09/01 01:46:06;;;;;;;21.33;11.53;;;;;;;20.07;100.00;101105.72;5051178;28;20256;-75
2021/09/01 01:48:33;;;;;;;26.33;14.80;;;;;;;20.03;100.00;101107.03;5052832;28;20461;-75
2021/09/01 01:50:59;;;;;;;25.40;15.63;;;;;;;20.05;100.00;101109.56;5054431;28;20508;-76
2021/09/01 01:53:24;;;;;;;36.63;18.70;;;;;;;19.98;100.00;101111.16;5052107;28;20924;-74
2021/09/01 01:55:50;;;;;;;35.57;19.03;;;;;;;19.91;100.00;101105.59;5061334;28;20413;-76
2021/09/01 01:58:15;;;;;;;30.37;18.07;;;;;;;19.87;100.00;101106.88;5049431;28;20639;-75
2021/09/01 02:00:41;;;;;;;29.93;18.43;;;;;;;19.82;100.00;101106.53;5048107;28;20571;-75
2021/09/01 02:03:07;;;;;;;28.53;19.13;;;;;;;19.76;100.00;101110.63;5047736;28;20235;-76
2021/09/01 02:05:33;;;;;;;33.43;19.37;;;;;;;19.67;100.00;101111.56;5048699;28;20447;-76
2021/09/01 02:07:58;;;;;;;26.73;17.50;;;;;;;19.66;100.00;101113.38;5049500;28;20201;-75
2021/09/01 02:10:24;;;;;;;33.00;20.90;;;;;;;19.62;100.00;101113.84;5046503;28;20177;-75
2021/09/01 02:12:49;;;;;;;33.97;19.23;;;;;;;19.58;100.00;101115.97;5046327;28;20204;-75
2021/09/01 02:15:15;;;;;;;30.40;17.70;;;;;;;19.52;100.00;101124.53;5047499;28;20181;-74
2021/09/01 02:17:41;;;;;;;26.67;15.43;;;;;;;19.44;100.00;101126.28;5048654;28;20181;-74
2021/09/01 02:20:08;;;;;;;21.03;11.90;;;;;;;19.37;100.00;101140.22;5052510;28;20200;-75
2021/09/01 02:22:35;;;;;;;17.40;10.73;;;;;;;19.28;100.00;101133.13;5057576;28;20948;-74
2021/09/01 02:25:00;;;;;;;18.77;10.17;;;;;;;19.20;100.00;101129.53;5052802;28;20414;-75
2021/09/01 02:27:26;;;;;;;26.50;12.33;;;;;;;19.18;100.00;101128.81;5060177;28;20498;-74
2021/09/01 02:29:51;;;;;;;24.30;12.60;;;;;;;19.12;100.00;101128.44;5048296;28;20188;-75
2021/09/01 02:32:17;;;;;;;21.83;12.00;;;;;;;19.12;100.00;101133.78;5056354;28;20169;-72
2021/09/01 02:34:43;;;;;;;25.47;11.73;;;;;;;19.10;100.00;101130.38;5050950;28;20315;-74
2021/09/01 02:37:09;;;;;;;25.60;11.90;;;;;;;19.13;100.00;101134.59;5052958;28;20728;-75
2021/09/01 02:39:34;;;;;;;20.60;10.67;;;;;;;19.12;100.00;101132.94;5036530;28;20176;-74
2021/09/01 02:42:00;;;;;;;16.13;10.37;;;;;;;19.18;100.00;101129.66;5048479;28;20172;-73
2021/09/01 02:44:25;;;;;;;22.10;11.20;;;;;;;19.20;100.00;101129.53;5034739;28;20603;-75
2021/09/01 02:46:51;;;;;;;21.63;10.77;;;;;;;19.19;100.00;101128.66;5029679;28;20263;-75
2021/09/01 02:49:16;;;;;;;17.03;9.40;;;;;;;19.15;100.00;101126.47;5032158;28;20177;-75
2021/09/01 02:51:42;;;;;;;18.40;8.10;;;;;;;19.21;100.00;101128.53;5031279;28;20563;-73
2021/09/01 02:54:07;;;;;;;16.97;9.20;;;;;;;19.19;100.00;101133.16;5037892;28;20269;-75
2021/09/01 02:56:33;;;;;;;18.03;9.20;;;;;;;19.25;100.00;101129.91;5033182;28;20182;-75
2021/09/01 02:58:59;;;;;;;17.33;8.80;;;;;;;19.26;100.00;101142.22;5039215;28;20188;-74
2021/09/01 03:01:24;;;;;;;17.47;9.23;;;;;;;19.26;100.00;101144.88;5049595;28;20181;-75
2021/09/01 03:03:50;;;;;;;18.83;10.00;;;;;;;19.29;100.00;101147.28;5039989;28;20184;-73
2021/09/01 03:06:15;;;;;;;15.63;9.70;;;;;;;19.28;100.00;101142.94;5034066;28;20272;-75
2021/09/01 03:08:41;;;;;;;15.87;9.30;;;;;;;19.28;100.00;101146.44;5032291;28;20699;-74
2021/09/01 03:11:06;;;;;;;17.33;9.50;;;;;;;19.29;100.00;101140.13;5035078;28;20178;-75
2021/09/01 03:13:33;;;;;;;16.60;9.73;;;;;;;19.27;100.00;101151.91;5033780;28;20253;-75
2021/09/01 03:15:59;;;;;;;21.50;10.77;;;;;;;19.26;100.00;101144.88;5037793;28;20858;-73
2021/09/01 03:18:24;;;;;;;16.07;10.53;;;;;;;19.24;100.00;101150.38;5035997;28;20416;-75
2021/09/01 03:20:50;;;;;;;20.03;9.90;;;;;;;19.23;100.00;101151.38;5033064;28;20686;-73
2021/09/01 03:23:16;;;;;;;17.37;11.10;;;;;;;19.19;100.00;101138.47;5040220;28;20193;-74
2021/09/01 03:25:41;;;;;;;15.77;10.73;;;;;;;19.18;100.00;101148.28;5033976;28;20268;-75
2021/09/01 03:28:07;;;;;;;18.90;9.67;;;;;;;19.18;100.00;101145.63;5032240;28;20549;-75
2021/09/01 03:30:33;;;;;;;13.00;8.13;;;;;;;19.19;100.00;101149.97;5032214;28;20166;-75
2021/09/01 03:32:59;;;;;;;16.00;8.20;;;;;;;19.21;100.00;101160.50;5032792;28;20745;-75
2021/09/01 03:35:24;;;;;;;16.23;6.87;;;;;;;19.22;100.00;101162.19;5032877;28;20416;-73
2021/09/01 03:37:50;;;;;;;12.17;7.23;;;;;;;19.20;100.00;101161.50;5045100;28;20421;-74
2021/09/01 03:40:16;;;;;;;14.80;7.53;;;;;;;19.18;100.00;101163.44;5041644;28;20565;-75
2021/09/01 03:42:42;;;;;;;14.53;7.30;;;;;;;19.17;100.00;101157.28;5034446;28;20428;-73
2021/09/01 03:45:09;;;;;;;11.30;6.80;;;;;;;19.21;100.00;101165.84;5037361;28;20189;-74
2021/09/01 03:47:34;;;;;;;10.50;5.93;;;;;;;19.26;100.00;101163.53;5029126;28;20205;-75
2021/09/01 03:50:02;;;;;;;11.80;6.03;;;;;;;19.29;100.00;101152.59;5031693;28;20428;-74
2021/09/01 03:52:28;;;;;;;10.20;6.00;;;;;;;19.30;100.00;101156.94;5038526;28;20173;-74
2021/09/01 03:54:53;;;;;;;9.27;5.40;;;;;;;19.36;100.00;101156.34;5042748;28;20431;-75
2021/09/01 03:57:19;;;;;;;13.73;5.90;;;;;;;19.43;100.00;101167.25;5032316;28;20538;-75
2021/09/01 03:59:44;;;;;;;12.10;6.70;;;;;;;19.51;100.00;101162.84;5032914;28;20173;-77
2021/09/01 04:02:10;;;;;;;11.10;6.70;;;;;;;19.60;100.00;101166.47;5038830;28;20170;-74
2021/09/01 04:04:35;;;;;;;8.57;5.83;;;;;;;19.70;100.00;101169.06;5045330;28;20176;-75
2021/09/01 04:07:02;;;;;;;10.70;6.37;;;;;;;19.76;100.00;101160.47;5041845;28;20671;-75
2021/09/01 04:09:28;;;;;;;14.33;6.80;;;;;;;19.84;100.00;101166.72;5036185;28;20302;-73
2021/09/01 04:11:54;;;;;;;13.90;7.00;;;;;;;19.92;100.00;101163.28;5033758;28;20511;-75
2021/09/01 04:14:19;;;;;;;10.83;6.07;;;;;;;19.97;100.00;101161.00;5032603;28;20189;-75
2021/09/01 04:16:45;;;;;;;14.50;7.33;;;;;;;20.06;100.00;101165.41;5045015;28;20185;-74
2021/09/01 04:19:10;;;;;;;11.77;5.70;;;;;;;20.09;100.00;101167.75;5031464;28;20679;-75
2021/09/01 04:21:36;;;;;;;8.10;5.00;;;;;;;20.11;100.00;101175.66;5031333;28;20173;-74
2021/09/01 04:24:01;;;;;;;10.90;5.63;;;;;;;20.13;100.00;101169.16;5041964;28;20181;-75
2021/09/01 04:26:27;;;;;;;11.87;5.60;;;;;;;20.19;100.00;101184.56;5032058;28;20194;-75
2021/09/01 04:28:53;;;;;;;12.20;6.00;;;;;;;20.21;100.00;101179.88;5029990;28;20172;-74
2021/09/01 04:31:18;;;;;;;11.60;5.93;;;;;;;20.26;100.00;101182.09;5031238;28;20212;-75
2021/09/01 04:33:44;;;;;;;15.40;6.47;;;;;;;20.29;100.00;101176.44;5031034;28;20197;-75
2021/09/01 04:36:10;;;;;;;11.67;5.40;;;;;;;20.33;100.00;101184.97;5037976;28;20642;-72
2021/09/01 04:38:35;;;;;;;8.33;4.80;;;;;;;20.33;100.00;101182.31;5037972;28;20554;-74
2021/09/01 04:41:00;;;;;;;18.53;5.50;;;;;;;20.38;100.00;101186.19;5037421;28;20181;-74
2021/09/01 04:43:26;;;;;;;8.50;4.97;;;;;;;20.40;100.00;101186.91;5025843;28;20174;-73
2021/09/01 04:45:52;;;;;;;8.80;5.70;;;;;;;20.41;100.00;101182.38;5030636;28;20185;-72
2021/09/01 04:48:17;;;;;;;15.10;6.30;;;;;;;20.44;100.00;101180.25;5032762;28;20198;-75
2021/09/01 04:50:43;;;;;;;8.67;6.00;;;;;;;20.54;100.00;101185.50;5032705;28;20165;-72
2021/09/01 04:53:09;;;;;;;9.80;6.63;;;;;;;20.59;100.00;101177.88;5036514;28;20271;-76
2021/09/01 04:55:34;;;;;;;8.23;6.00;;;;;;;20.57;100.00;101179.88;5038341;28;20162;-73
2021/09/01 04:58:00;;;;;;;11.90;6.83;;;;;;;20.63;100.00;101178.38;5029849;28;20251;-74
2021/09/01 05:00:26;;;;;;;10.83;7.33;;;;;;;20.66;100.00;101186.09;5032726;28;20169;-74
2021/09/01 05:02:52;;;;;;;12.70;7.30;;;;;;;20.68;100.00;101184.94;5032565;28;20416;-74
2021/09/01 05:05:18;;;;;;;13.93;7.60;;;;;;;20.70;100.00;101195.44;5029903;28;20435;-73
2021/09/01 05:07:43;;;;;;;12.77;7.73;;;;;;;20.80;100.00;101195.38;5031306;28;20443;-76
2021/09/01 05:10:09;;;;;;;15.83;9.53;;;;;;;20.82;100.00;101196.03;5035665;28;20658;-74
2021/09/01 05:12:35;;;;;;;15.93;8.73;;;;;;;20.77;100.00;101193.81;5030365;28;20165;-72
2021/09/01 05:15:01;;;;;;;14.57;9.73;;;;;;;20.84;100.00;101183.34;5035485;28;20501;-75
2021/09/01 05:17:26;;;;;;;10.50;7.20;;;;;;;20.89;100.00;101183.72;5031477;28;20192;-75
2021/09/01 05:19:51;;;;;;;11.60;7.50;;;;;;;20.94;100.00;101181.44;5027812;28;20200;-76
2021/09/01 05:22:20;;;;;;;13.20;6.77;;;;;;;20.99;100.00;101185.28;5031996;28;20173;-73
2021/09/01 05:24:59;;;;;;;11.40;5.23;;;;;;;21.01;100.00;101187.81;5032849;28;20220;-74
2021/09/01 05:27:26;;;;;;;7.70;5.27;;;;;;;20.94;100.00;101187.59;5031252;28;20861;-75
2021/09/01 05:29:51;;;;;;;19.30;5.73;;;;;;;20.97;100.00;101192.63;5030143;28;20476;-74
2021/09/01 05:32:23;;;;;;;8.90;5.27;;;;;;;21.04;100.00;101191.00;5030056;28;20739;-72
2021/09/01 05:34:52;;;;;;;10.70;5.43;;;;;;;21.11;100.00;101188.50;5029788;28;20170;-71
2021/09/01 05:37:18;;;;;;;7.47;4.63;;;;;;;21.18;100.00;101194.06;5031852;28;20431;-74
2021/09/01 05:39:46;;;;;;;7.70;3.80;;;;;;;21.18;100.00;101180.69;5042762;28;20942;-81
2021/09/01 05:42:13;;;;;;;7.13;4.00;;;;;;;21.33;100.00;101187.13;5047886;28;20419;-79
2021/09/01 05:44:40;;;;;;;10.27;4.00;;;;;;;21.46;100.00;101176.84;5046817;28;20423;-78
2021/09/01 05:47:08;;;;;;;13.73;3.40;;;;;;;21.64;100.00;101178.53;5038482;28;20443;-79
2021/09/01 05:49:34;;;;;;;9.23;4.13;;;;;;;21.69;100.00;101171.72;5040139;28;20419;-79
2021/09/01 05:52:00;;;;;;;7.57;3.70;;;;;;;21.78;100.00;101170.72;5032992;28;20409;-75
2021/09/01 05:54:26;;;;;;;6.43;3.67;;;;;;;21.88;100.00;101170.56;5051476;28;20188;-78
2021/09/01 05:56:55;;;;;;;7.73;4.47;;;;;;;21.74;100.00;101172.03;5043724;28;20486;-80
2021/09/01 05:59:23;;;;;;;7.40;3.60;;;;;;;21.68;100.00;101163.81;5048661;28;20408;-77
2021/09/01 06:01:59;;;;;;;7.10;4.27;;;;;;;21.62;100.00;101165.34;5046724;28;20415;-77
2021/09/01 06:04:28;;;;;;;9.73;4.20;;;;;;;21.56;100.00;101169.50;5034486;28;20489;-77
2021/09/01 06:06:55;;;;;;;7.00;3.90;;;;;;;21.68;100.00;101170.00;5030982;28;20440;-76
2021/09/01 06:09:20;;;;;;;8.30;4.23;;;;;;;21.62;100.00;101160.00;5027156;28;20464;-78
2021/09/01 06:11:52;;;;;;;5.27;3.37;;;;;;;21.49;100.00;101154.25;5030640;28;20866;-86
2021/09/01 06:14:18;;;;;;;8.73;4.30;;;;;;;21.48;100.00;101161.44;5031017;28;20199;-81
2021/09/01 06:16:43;;;;;;;7.80;3.80;;;;;;;21.47;100.00;101156.28;5052379;28;20513;-82
2021/09/01 06:19:09;;;;;;;6.53;4.00;;;;;;;21.62;100.00;101160.00;5037383;28;20178;-79
2021/09/01 06:21:35;;;;;;;7.40;3.87;;;;;;;21.70;100.00;101149.31;5032727;28;20162;-79
2021/09/01 06:24:00;;;;;;;6.40;4.10;;;;;;;21.73;100.00;101143.59;5031213;28;20608;-79
2021/09/01 06:26:26;;;;;;;5.47;3.47;;;;;;;21.73;100.00;101156.97;5040514;28;20197;-74
2021/09/01 06:28:51;;;;;;;6.37;3.93;;;;;;;21.76;100.00;101140.59;5046464;28;20706;-76
2021/09/01 06:31:17;;;;;;;7.97;4.20;;;;;;;21.94;100.00;101147.66;5038183;28;20548;-79
2021/09/01 06:33:42;;;;;;;6.00;4.07;;;;;;;22.05;100.00;101144.63;5034114;28;20188;-78
2021/09/01 06:36:08;;;;;;;11.50;4.80;;;;;;;22.15;100.00;101140.84;5033657;28;20340;-81
2021/09/01 06:38:33;;;;;;;17.13;4.70;;;;;;;22.22;100.00;101143.66;5039141;28;20173;-80
2021/09/01 06:40:59;;;;;;;5.60;3.90;;;;;;;22.39;100.00;101141.81;5041928;28;20170;-81
2021/09/01 06:43:24;;;;;;;8.87;4.77;;;;;;;22.52;100.00;101142.13;5036246;28;20243;-82
2021/09/01 06:45:50;;;;;;;12.73;5.23;;;;;;;22.58;100.00;101141.41;5040474;28;20177;-78
2021/09/01 06:48:16;;;;;;;8.27;4.30;;;;;;;22.65;100.00;101141.56;5054083;28;20666;-80
2021/09/01 06:50:41;;;;;;;7.07;4.70;;;;;;;22.70;100.00;101148.09;5048014;28;20166;-77
2021/09/01 06:53:08;;;;;;;10.93;4.50;;;;;;;22.77;100.00;101144.75;5040626;28;20190;-80
2021/09/01 06:55:35;;;;;;;7.63;4.20;;;;;;;22.83;100.00;101152.09;5033070;28;20481;-80
2021/09/01 06:58:01;;;;;;;7.30;4.63;;;;;;;22.88;100.00;101150.59;5047803;28;20777;-77
2021/09/01 07:00:26;;;;;;;7.53;4.40;;;;;;;22.96;100.00;101173.84;5047921;28;20931;-79
2021/09/01 07:02:52;;;;;;;7.20;4.60;;;;;;;23.07;100.00;101156.56;5034754;28;20166;-78
2021/09/01 07:05:18;;;;;;;15.90;4.40;;;;;;;23.23;100.00;101135.88;5034876;28;20621;-83
2021/09/01 07:07:44;;;;;;;7.77;4.60;;;;;;;23.29;100.00;101153.13;5033118;28;20205;-80
2021/09/01 07:10:12;;;;;;;13.30;4.90;;;;;;;23.39;100.00;101155.56;5033735;28;20408;-81
2021/09/01 07:12:38;;;;;;;7.73;5.00;;;;;;;23.46;100.00;101156.53;5013095;28;20422;-76
2021/09/01 07:15:08;;;;;;;7.20;3.97;;;;;;;23.49;100.00;101151.63;5025367;28;20532;-79
2021/09/01 07:17:33;;;;;;;6.23;3.60;;;;;;;23.51;100.00;101144.28;5031573;28;20818;-76
2021/09/01 07:19:59;;;;;;;12.70;5.20;;;;;;;23.56;100.00;101151.78;5033787;28;20428;-76
2021/09/01 07:22:24;;;;;;;9.63;4.50;;;;;;;23.68;100.00;101147.72;5038902;28;20169;-75
2021/09/01 07:24:50;;;;;;;7.33;4.27;;;;;;;23.84;100.00;101145.94;5044115;28;20640;-74
2021/09/01 07:27:15;;;;;;;8.83;4.13;;;;;;;23.88;100.00;101137.34;5032238;28;20291;-74
2021/09/01 07:29:41;;;;;;;9.23;6.23;;;;;;;23.96;100.00;101139.97;5031837;28;20177;-74
2021/09/01 07:32:06;;;;;;;7.20;4.10;;;;;;;24.11;100.00;101145.38;5036022;28;20245;-76
2021/09/01 07:34:32;;;;;;;6.10;3.90;;;;;;;24.18;100.00;101145.47;5033396;28;20532;-76
2021/09/01 07:36:57;;;;;;;7.17;3.60;;;;;;;24.30;100.00;101135.97;5040975;28;20174;-80
2021/09/01 07:39:24;;;;;;;8.50;4.10;;;;;;;24.41;100.00;101135.56;5032160;28;20232;-79
2021/09/01 07:41:49;;;;;;;21.87;4.47;;;;;;;24.47;100.00;101140.19;5031213;28;20169;-78
2021/09/01 07:44:15;;;;;;;5.87;4.23;;;;;;;24.43;100.00;101125.47;5035943;28;20424;-77
2021/09/01 07:46:40;;;;;;;5.90;3.90;;;;;;;24.57;100.00;101130.03;5049735;28;20181;-79
2021/09/01 07:49:06;;;;;;;10.60;4.53;;;;;;;24.70;99.67;101117.78;5034942;28;20739;-78
2021/09/01 07:51:31;;;;;;;7.97;4.10;;;;;;;24.82;97.60;101132.44;5040044;28;20679;-78
2021/09/01 07:53:57;;;;;;;7.00;4.23;;;;;;;24.79;95.60;101120.19;5031759;28;20162;-80
2021/09/01 07:56:22;;;;;;;13.20;4.87;;;;;;;24.82;93.87;101118.97;5031321;28;20507;-77
2021/09/01 07:58:48;;;;;;;7.37;3.43;;;;;;;24.81;91.01;101120.84;5038487;28;20169;-79
2021/09/01 08:01:13;;;;;;;6.60;3.80;;;;;;;24.86;92.92;101113.06;5034450;28;20698;-77
2021/09/01 08:03:39;;;;;;;6.20;3.83;;;;;;;24.96;91.92;101106.56;5031764;28;20201;-79
2021/09/01 08:06:07;;;;;;;4.40;3.20;;;;;;;25.00;91.88;101118.59;5031648;28;20166;-78
2021/09/01 08:08:33;;;;;;;8.10;3.50;;;;;;;24.92;92.60;101112.28;5031238;28;20192;-77
2021/09/01 08:10:59;;;;;;;5.77;4.10;;;;;;;25.03;91.20;101119.09;5028829;28;20414;-76
2021/09/01 08:13:25;;;;;;;5.60;3.70;;;;;;;25.05;89.34;101113.53;5039631;28;20176;-77
2021/09/01 08:15:50;;;;;;;6.23;3.67;;;;;;;25.13;91.09;101114.25;5048166;28;20408;-76
2021/09/01 08:18:16;;;;;;;7.13;3.57;;;;;;;25.21;89.16;101112.47;5039238;28;20177;-78
2021/09/01 08:20:41;;;;;;;5.77;3.40;;;;;;;25.16;89.07;101129.16;5031119;28;20252;-80
2021/09/01 08:23:06;;;;;;;6.03;3.47;;;;;;;25.24;91.35;101118.31;5039286;28;20165;-75
2021/09/01 08:25:32;;;;;;;4.73;3.40;;;;;;;25.42;90.50;101105.25;5032796;28;20201;-72
2021/09/01 08:27:57;;;;;;;7.93;3.77;;;;;;;25.46;91.85;101100.31;5035209;28;20698;-73
2021/09/01 08:30:23;;;;;;;8.43;3.87;;;;;;;25.59;91.10;101095.06;5050552;28;20164;-74
2021/09/01 08:32:48;;;;;;;9.07;4.20;;;;;;;25.60;91.69;101094.03;5038956;28;20252;-75
2021/09/01 08:35:14;;;;;;;5.63;3.23;;;;;;;25.60;85.26;101088.66;5029373;28;20173;-73
2021/09/01 08:37:39;;;;;;;9.83;3.27;;;;;;;25.56;84.74;101082.00;5029730;28;20235;-78
2021/09/01 08:40:07;;;;;;;9.63;3.30;;;;;;;25.69;81.12;101081.28;5029845;28;20181;-72
2021/09/01 08:42:35;;;;;;;10.43;3.10;;;;;;;25.76;78.16;101089.47;5030742;28;20169;-76
2021/09/01 08:45:00;;;;;;;6.20;3.40;;;;;;;25.88;78.63;101096.00;5030845;28;20822;-75
2021/09/01 08:47:26;;;;;;;7.67;2.97;;;;;;;25.87;78.72;101088.94;5021894;28;20986;-73
2021/09/01 08:49:52;;;;;;;7.20;2.43;;;;;;;25.93;75.26;101088.19;5010709;28;20629;-75
2021/09/01 08:52:17;;;;;;;5.63;2.70;;;;;;;25.88;76.44;101088.75;5010370;28;20154;-75
2021/09/01 08:54:43;;;;;;;6.40;2.97;;;;;;;25.87;76.05;101088.94;5010720;28;20242;-75
2021/09/01 08:57:11;;;;;;;5.63;3.33;;;;;;;25.93;76.34;101088.19;5015648;28;20165;-74
2021/09/01 08:59:36;;;;;;;10.23;3.10;;;;;;;25.99;76.57;101087.38;5025731;28;20599;-75
2021/09/01 09:02:02;;;;;;;8.83;2.63;;;;;;;26.09;75.51;101085.19;5010451;28;20977;-74
2021/09/01 09:04:30;;;;;;;6.70;2.53;;;;;;;26.10;73.25;101089.56;5010756;28;20550;-75
2021/09/01 09:07:04;;;;;;;4.07;2.33;;;;;;;26.07;74.39;101081.88;5010263;28;20166;-75
2021/09/01 09:09:32;;;;;;;7.83;2.90;;;;;;;26.26;76.07;101075.78;5012701;28;20419;-74
2021/09/01 09:11:59;;;;;;;4.50;2.43;;;;;;;26.44;74.64;101079.84;5029987;28;20407;-75
2021/09/01 09:14:37;;;;;;;11.00;2.80;;;;;;;26.60;73.01;101079.56;5029741;28;20855;-74
2021/09/01 09:17:10;;;;;;;5.47;2.43;;;;;;;26.88;73.72;101065.16;5029472;28;20793;-75
2021/09/01 09:20:06;;;;;;;8.37;3.17;;;;;;;26.80;73.09;101075.06;5026671;28;20421;-76
2021/09/01 09:22:37;;;;;;;6.27;3.00;;;;;;;26.88;73.21;101079.47;5010590;28;20400;-73
2021/09/01 09:25:25;;;;;;;6.33;2.80;;;;;;;26.67;73.81;101066.91;5009967;28;20504;-75
2021/09/01 09:27:58;;;;;;;7.93;3.00;;;;;;;26.74;74.76;101072.34;5009505;28;20485;-74
2021/09/01 09:30:50;;;;;;;5.50;3.10;;;;;;;26.82;75.25;101048.72;5017197;28;20417;-73
2021/09/01 09:33:18;;;;;;;5.17;2.60;;;;;;;26.77;69.06;101061.16;5028576;28;20511;-75
2021/09/01 09:35:57;;;;;;;5.73;2.53;;;;;;;26.82;67.24;101053.28;5029916;28;20520;-75
2021/09/01 09:38:29;;;;;;;5.57;2.30;;;;;;;26.89;68.14;101045.22;5029666;28;20396;-74
2021/09/01 09:40:55;;;;;;;4.37;2.10;;;;;;;27.11;67.60;101044.09;5016910;28;20509;-75
2021/09/01 09:43:23;;;;;;;6.77;2.63;;;;;;;27.12;66.30;101051.13;5009654;28;20787;-72
2021/09/01 09:45:57;;;;;;;5.53;2.43;;;;;;;27.01;66.78;101032.81;5024735;28;20418;-76
2021/09/01 09:48:28;;;;;;;4.60;2.50;;;;;;;27.05;65.49;101031.41;5008809;28;20476;-75
2021/09/01 09:50:53;;;;;;;5.63;2.00;;;;;;;27.11;65.13;101027.91;5025677;28;20412;-74
2021/09/01 09:53:39;;;;;;;7.83;3.40;;;;;;;27.36;66.29;101033.56;5033494;28;20416;-75
2021/09/01 09:56:09;;;;;;;6.00;2.20;;;;;;;27.54;63.87;101016.75;5033614;28;20512;-74
2021/09/01 09:58:37;;;;;;;7.50;2.93;;;;;;;27.60;64.99;101022.16;5031591;28;20428;-75
2021/09/01 10:01:04;;;;;;;6.30;2.60;;;;;;;27.81;64.32;101004.09;5033253;28;20393;-74
2021/09/01 10:03:31;;;;;;;4.63;2.10;;;;;;;27.95;64.48;101004.91;5031974;28;20489;-73
2021/09/01 10:05:58;;;;;;;6.10;2.97;;;;;;;28.13;63.13;101016.75;5032487;28;20403;-74
2021/09/01 10:08:25;;;;;;;8.10;2.60;;;;;;;28.18;62.24;101014.22;5024135;28;20460;-75
2021/09/01 10:10:52;;;;;;;5.60;2.80;;;;;;;28.37;62.02;100999.03;5013573;28;20396;-74
2021/09/01 10:13:18;;;;;;;3.83;1.87;;;;;;;28.25;62.46;101007.97;5014072;28;20796;-73
2021/09/01 10:15:44;;;;;;;4.40;2.57;;;;;;;28.14;63.24;100996.78;5012168;28;20493;-75
2021/09/01 10:18:10;;;;;;;7.07;2.83;;;;;;;28.28;63.76;101010.25;5013664;28;20262;-73
2021/09/01 10:20:42;;;;;;;5.80;2.53;;;;;;;28.45;61.14;101006.06;5013052;28;20162;-75
2021/09/01 10:23:08;;;;;;;12.03;2.53;;;;;;;28.51;61.38;101004.41;5026823;28;20455;-75
2021/09/01 10:25:45;;;;;;;5.77;2.80;;;;;;;28.62;62.60;101006.41;5032726;28;20499;-75
2021/09/01 10:28:20;;;;;;;6.63;3.07;;;;;;;28.94;62.18;101002.78;5030672;28;21072;-74
2021/09/01 10:31:08;;;;;;;5.60;2.60;;;;;;;29.41;61.01;100992.44;5031869;28;20594;-74
2021/09/01 10:33:35;;;;;;;8.53;2.70;;;;;;;29.33;61.72;100995.44;5016836;28;20437;-75
2021/09/01 10:36:24;;;;;;;7.43;2.80;;;;;;;29.29;61.13;100991.47;5012671;28;20405;-76
2021/09/01 10:38:54;;;;;;;6.33;3.10;;;;;;;29.35;61.03;100998.72;5012816;28;20432;-74
2021/09/01 10:41:33;;;;;;;7.60;2.60;;;;;;;29.38;60.45;100994.75;5012856;28;20420;-72
2021/09/01 10:44:10;;;;;;;4.70;2.97;;;;;;;29.20;61.13;100985.50;5013100;28;20405;-74
2021/09/01 10:46:54;;;;;;;5.17;3.10;;;;;;;28.95;61.87;100990.88;5013179;28;20432;-76
2021/09/01 10:49:46;;;;;;;4.10;2.63;;;;;;;29.47;60.29;100972.63;5012990;28;20924;-74
2021/09/01 10:52:13;;;;;;;5.20;3.10;;;;;;;30.78;57.72;100967.91;5019145;28;20420;-76
2021/09/01 10:54:40;;;;;;;5.10;2.80;;;;;;;31.53;54.99;100970.09;5032542;28;20860;-75
2021/09/01 10:57:21;;;;;;;7.80;2.90;;;;;;;31.85;54.86;100966.00;5032606;28;20188;-75
2021/09/01 10:59:46;;;;;;;5.10;2.63;;;;;;;32.40;54.15;100962.81;5031054;28;20420;-75
2021/09/01 11:02:14;;;;;;;5.30;2.73;;;;;;;32.57;54.58;100968.31;5027952;28;20417;-73
2021/09/01 11:04:59;;;;;;;4.90;2.70;;;;;;;32.39;56.77;100961.19;5012476;28;20659;-76
2021/09/01 11:07:26;;;;;;;7.03;2.80;;;;;;;32.50;54.66;100968.50;5013408;28;20449;-74
2021/09/01 11:10:06;;;;;;;10.70;3.07;;;;;;;33.23;52.56;100945.03;5012654;28;20409;-74
2021/09/01 11:12:41;;;;;;;7.00;3.70;;;;;;;33.23;51.42;100944.22;5012392;28;20409;-75
2021/09/01 11:15:08;;;;;;;5.77;2.67;;;;;;;32.51;53.10;100947.53;5012344;28;20890;-74
2021/09/01 11:17:33;;;;;;;8.47;2.83;;;;;;;31.98;54.01;100952.16;5025780;28;20413;-77